Luger, Wisconsin
Current Conditions -  °F | °C
As of 1:55 PM on Sunday 23 Nov 2014 (Local Time) from KPBH Reporting Station
Moderate Fog Moderate Fog  
Wind Chill: 39°   Ceiling: 200
Heat Index: 42°   Visibility: 0mi
Dew Point: 42°   Wind: 6mph
Humidity: 100%   Direction: 170°S
Pressure: 29.41"   Gusts: NA
Location:  45.7439°N, 90.2959°W
Report Text: KPBH 231955Z AUTO 17005KT M1/4SM FG OVC002 06/06 A2941 RMK AO2 T00580058
Loading
Personal Weather Stations






























Interactive Weather Map New forecast layout! Learn more

10-Day Weather Forecast

Advertisements
Track Severe Weather on mobile